sensor_id;sensor_type;location;lat;lon;timestamp;pressure;altitude;pressure_sealevel;temperature
19666;BMP180;9980;51.020;7.772;2023-03-12T00:00:08;97071.00;;;3.10
19666;BMP180;9980;51.020;7.772;2023-03-12T00:02:37;97074.00;;;3.10
19666;BMP180;9980;51.020;7.772;2023-03-12T00:05:04;97068.00;;;3.10
19666;BMP180;9980;51.020;7.772;2023-03-12T00:07:32;97069.00;;;3.10
19666;BMP180;9980;51.020;7.772;2023-03-12T00:09:58;97075.00;;;2.90
19666;BMP180;9980;51.020;7.772;2023-03-12T00:12:25;97052.00;;;3.10
19666;BMP180;9980;51.020;7.772;2023-03-12T00:14:52;97067.00;;;3.20
19666;BMP180;9980;51.020;7.772;2023-03-12T00:17:20;97067.00;;;3.10
19666;BMP180;9980;51.020;7.772;2023-03-12T00:19:51;97072.00;;;3.20
19666;BMP180;9980;51.020;7.772;2023-03-12T00:22:18;97076.00;;;3.20
19666;BMP180;9980;51.020;7.772;2023-03-12T00:24:54;97076.00;;;3.20
19666;BMP180;9980;51.020;7.772;2023-03-12T00:27:24;97044.00;;;3.20
19666;BMP180;9980;51.020;7.772;2023-03-12T00:29:52;97070.00;;;3.20
19666;BMP180;9980;51.020;7.772;2023-03-12T00:32:20;97056.00;;;3.20
19666;BMP180;9980;51.020;7.772;2023-03-12T00:34:53;97054.00;;;3.20
19666;BMP180;9980;51.020;7.772;2023-03-12T00:37:21;97024.00;;;3.20
19666;BMP180;9980;51.020;7.772;2023-03-12T00:39:51;97051.00;;;3.20
19666;BMP180;9980;51.020;7.772;2023-03-12T00:42:18;97063.00;;;3.20
19666;BMP180;9980;51.020;7.772;2023-03-12T00:44:46;97040.00;;;3.20
19666;BMP180;9980;51.020;7.772;2023-03-12T00:47:13;97048.00;;;3.20
19666;BMP180;9980;51.020;7.772;2023-03-12T00:49:40;97054.00;;;3.30
19666;BMP180;9980;51.020;7.772;2023-03-12T00:52:07;97043.00;;;3.20
19666;BMP180;9980;51.020;7.772;2023-03-12T00:54:35;97046.00;;;3.30
19666;BMP180;9980;51.020;7.772;2023-03-12T00:57:03;97054.00;;;3.30
19666;BMP180;9980;51.020;7.772;2023-03-12T00:59:31;97042.00;;;3.30
19666;BMP180;9980;51.020;7.772;2023-03-12T01:01:58;97047.00;;;3.30
19666;BMP180;9980;51.020;7.772;2023-03-12T01:04:25;97029.00;;;3.30
19666;BMP180;9980;51.020;7.772;2023-03-12T01:06:54;97034.00;;;3.30
19666;BMP180;9980;51.020;7.772;2023-03-12T01:09:23;97022.00;;;3.30
19666;BMP180;9980;51.020;7.772;2023-03-12T01:11:50;96986.00;;;3.30
19666;BMP180;9980;51.020;7.772;2023-03-12T01:14:17;97042.00;;;3.30
19666;BMP180;9980;51.020;7.772;2023-03-12T01:16:44;97024.00;;;3.30
19666;BMP180;9980;51.020;7.772;2023-03-12T01:19:12;97016.00;;;3.30
19666;BMP180;9980;51.020;7.772;2023-03-12T01:21:39;97027.00;;;3.30
19666;BMP180;9980;51.020;7.772;2023-03-12T01:24:06;97022.00;;;3.30
19666;BMP180;9980;51.020;7.772;2023-03-12T01:26:33;97028.00;;;3.30
19666;BMP180;9980;51.020;7.772;2023-03-12T01:29:00;97042.00;;;3.40
19666;BMP180;9980;51.020;7.772;2023-03-12T01:31:27;97018.00;;;3.30
19666;BMP180;9980;51.020;7.772;2023-03-12T01:33:54;97026.00;;;3.30
19666;BMP180;9980;51.020;7.772;2023-03-12T01:36:28;97037.00;;;3.30
19666;BMP180;9980;51.020;7.772;2023-03-12T01:38:58;97040.00;;;3.40
19666;BMP180;9980;51.020;7.772;2023-03-12T01:41:29;97026.00;;;3.40
19666;BMP180;9980;51.020;7.772;2023-03-12T01:43:59;97036.00;;;3.40
19666;BMP180;9980;51.020;7.772;2023-03-12T01:46:41;97039.00;;;3.40
19666;BMP180;9980;51.020;7.772;2023-03-12T01:49:31;97037.00;;;3.40
19666;BMP180;9980;51.020;7.772;2023-03-12T01:52:08;97019.00;;;3.40
19666;BMP180;9980;51.020;7.772;2023-03-12T01:54:56;97021.00;;;3.40
19666;BMP180;9980;51.020;7.772;2023-03-12T01:57:36;97024.00;;;3.40
19666;BMP180;9980;51.020;7.772;2023-03-12T02:00:11;96992.00;;;3.40
19666;BMP180;9980;51.020;7.772;2023-03-12T02:02:40;97007.00;;;3.40
19666;BMP180;9980;51.020;7.772;2023-03-12T02:08:17;96996.00;;;3.20
19666;BMP180;9980;51.020;7.772;2023-03-12T02:10:44;96966.00;;;3.40
19666;BMP180;9980;51.020;7.772;2023-03-12T02:13:12;96992.00;;;3.40
19666;BMP180;9980;51.020;7.772;2023-03-12T02:15:44;96983.00;;;3.40
19666;BMP180;9980;51.020;7.772;2023-03-12T02:18:15;96989.00;;;3.40
19666;BMP180;9980;51.020;7.772;2023-03-12T02:26:50;96993.00;;;3.40
19666;BMP180;9980;51.020;7.772;2023-03-12T02:29:18;96985.00;;;3.50
19666;BMP180;9980;51.020;7.772;2023-03-12T02:31:54;96972.00;;;3.50
19666;BMP180;9980;51.020;7.772;2023-03-12T02:34:22;96960.00;;;3.50
19666;BMP180;9980;51.020;7.772;2023-03-12T02:36:49;96956.00;;;3.50
19666;BMP180;9980;51.020;7.772;2023-03-12T02:39:16;96960.00;;;3.50
19666;BMP180;9980;51.020;7.772;2023-03-12T02:41:51;96959.00;;;3.50
19666;BMP180;9980;51.020;7.772;2023-03-12T02:44:27;96928.00;;;3.50
19666;BMP180;9980;51.020;7.772;2023-03-12T02:46:58;96965.00;;;3.50
19666;BMP180;9980;51.020;7.772;2023-03-12T02:49:33;96953.00;;;3.50
19666;BMP180;9980;51.020;7.772;2023-03-12T02:52:02;96962.00;;;3.50
19666;BMP180;9980;51.020;7.772;2023-03-12T02:54:29;96945.00;;;3.60
19666;BMP180;9980;51.020;7.772;2023-03-12T02:56:57;96966.00;;;3.50
19666;BMP180;9980;51.020;7.772;2023-03-12T02:59:26;96963.00;;;3.60
19666;BMP180;9980;51.020;7.772;2023-03-12T03:01:58;96962.00;;;3.50
19666;BMP180;9980;51.020;7.772;2023-03-12T03:04:28;96961.00;;;3.60
19666;BMP180;9980;51.020;7.772;2023-03-12T03:06:55;96959.00;;;3.60
19666;BMP180;9980;51.020;7.772;2023-03-12T03:09:23;96955.00;;;3.60
19666;BMP180;9980;51.020;7.772;2023-03-12T03:11:51;96929.00;;;3.60
19666;BMP180;9980;51.020;7.772;2023-03-12T03:14:18;96933.00;;;3.60
19666;BMP180;9980;51.020;7.772;2023-03-12T03:16:48;96935.00;;;3.60
19666;BMP180;9980;51.020;7.772;2023-03-12T03:19:15;96930.00;;;3.60
19666;BMP180;9980;51.020;7.772;2023-03-12T03:21:42;96963.00;;;3.60
19666;BMP180;9980;51.020;7.772;2023-03-12T03:24:10;96930.00;;;3.60
19666;BMP180;9980;51.020;7.772;2023-03-12T03:26:37;96934.00;;;3.60
19666;BMP180;9980;51.020;7.772;2023-03-12T03:29:04;96941.00;;;3.60
19666;BMP180;9980;51.020;7.772;2023-03-12T03:31:31;96935.00;;;3.60
19666;BMP180;9980;51.020;7.772;2023-03-12T03:33:58;96947.00;;;3.60
19666;BMP180;9980;51.020;7.772;2023-03-12T03:36:25;96954.00;;;3.60
19666;BMP180;9980;51.020;7.772;2023-03-12T03:39:03;96959.00;;;3.60
19666;BMP180;9980;51.020;7.772;2023-03-12T03:41:30;96951.00;;;3.70
19666;BMP180;9980;51.020;7.772;2023-03-12T03:44:01;96941.00;;;3.70
19666;BMP180;9980;51.020;7.772;2023-03-12T03:46:30;96948.00;;;3.70
19666;BMP180;9980;51.020;7.772;2023-03-12T03:49:02;96946.00;;;3.70
19666;BMP180;9980;51.020;7.772;2023-03-12T03:51:30;96941.00;;;3.70
19666;BMP180;9980;51.020;7.772;2023-03-12T03:54:02;96918.00;;;3.70
19666;BMP180;9980;51.020;7.772;2023-03-12T03:56:29;96917.00;;;3.70
19666;BMP180;9980;51.020;7.772;2023-03-12T03:58:58;96933.00;;;3.70
19666;BMP180;9980;51.020;7.772;2023-03-12T04:01:26;96934.00;;;3.70
19666;BMP180;9980;51.020;7.772;2023-03-12T04:03:54;96932.00;;;3.80
19666;BMP180;9980;51.020;7.772;2023-03-12T04:06:21;96916.00;;;3.80
19666;BMP180;9980;51.020;7.772;2023-03-12T04:08:48;96897.00;;;3.80
19666;BMP180;9980;51.020;7.772;2023-03-12T04:11:20;96922.00;;;3.80
19666;BMP180;9980;51.020;7.772;2023-03-12T04:13:49;96898.00;;;3.80
19666;BMP180;9980;51.020;7.772;2023-03-12T04:16:19;96898.00;;;3.80
19666;BMP180;9980;51.020;7.772;2023-03-12T04:18:48;96913.00;;;3.80
19666;BMP180;9980;51.020;7.772;2023-03-12T04:21:16;96917.00;;;3.90
19666;BMP180;9980;51.020;7.772;2023-03-12T04:23:44;96910.00;;;3.80
19666;BMP180;9980;51.020;7.772;2023-03-12T04:26:12;96908.00;;;3.90
19666;BMP180;9980;51.020;7.772;2023-03-12T04:28:39;96901.00;;;3.90
19666;BMP180;9980;51.020;7.772;2023-03-12T04:31:09;96900.00;;;3.90
19666;BMP180;9980;51.020;7.772;2023-03-12T04:33:45;96905.00;;;3.90
19666;BMP180;9980;51.020;7.772;2023-03-12T04:36:12;96916.00;;;3.80
19666;BMP180;9980;51.020;7.772;2023-03-12T04:38:42;96910.00;;;4.00
19666;BMP180;9980;51.020;7.772;2023-03-12T04:41:12;96896.00;;;4.00
19666;BMP180;9980;51.020;7.772;2023-03-12T04:43:47;96888.00;;;4.00
19666;BMP180;9980;51.020;7.772;2023-03-12T04:46:16;96888.00;;;4.00
19666;BMP180;9980;51.020;7.772;2023-03-12T04:48:43;96895.00;;;4.10
19666;BMP180;9980;51.020;7.772;2023-03-12T04:51:11;96899.00;;;4.10
19666;BMP180;9980;51.020;7.772;2023-03-12T04:53:38;96905.00;;;4.10
19666;BMP180;9980;51.020;7.772;2023-03-12T04:56:08;96885.00;;;4.10
19666;BMP180;9980;51.020;7.772;2023-03-12T04:58:36;96902.00;;;4.10
19666;BMP180;9980;51.020;7.772;2023-03-12T05:01:03;96914.00;;;4.10
19666;BMP180;9980;51.020;7.772;2023-03-12T05:03:32;96847.00;;;4.10
19666;BMP180;9980;51.020;7.772;2023-03-12T05:05:59;96880.00;;;4.10
19666;BMP180;9980;51.020;7.772;2023-03-12T05:08:26;96884.00;;;4.20
19666;BMP180;9980;51.020;7.772;2023-03-12T05:10:53;96890.00;;;4.10
19666;BMP180;9980;51.020;7.772;2023-03-12T05:13:22;96865.00;;;4.10
19666;BMP180;9980;51.020;7.772;2023-03-12T05:15:53;96823.00;;;4.30
19666;BMP180;9980;51.020;7.772;2023-03-12T05:18:21;96868.00;;;4.30
19666;BMP180;9980;51.020;7.772;2023-03-12T05:21:11;96875.00;;;4.30
19666;BMP180;9980;51.020;7.772;2023-03-12T05:23:39;96878.00;;;4.30
19666;BMP180;9980;51.020;7.772;2023-03-12T05:26:24;96881.00;;;4.30
19666;BMP180;9980;51.020;7.772;2023-03-12T05:28:58;96893.00;;;4.30
19666;BMP180;9980;51.020;7.772;2023-03-12T05:31:26;96870.00;;;4.30
19666;BMP180;9980;51.020;7.772;2023-03-12T05:33:53;96883.00;;;4.40
19666;BMP180;9980;51.020;7.772;2023-03-12T05:36:22;96895.00;;;4.40
19666;BMP180;9980;51.020;7.772;2023-03-12T05:38:49;96877.00;;;4.40
19666;BMP180;9980;51.020;7.772;2023-03-12T05:41:25;96879.00;;;4.40
19666;BMP180;9980;51.020;7.772;2023-03-12T05:43:57;96885.00;;;4.40
19666;BMP180;9980;51.020;7.772;2023-03-12T05:46:27;96869.00;;;4.50
19666;BMP180;9980;51.020;7.772;2023-03-12T05:48:54;96896.00;;;4.50
19666;BMP180;9980;51.020;7.772;2023-03-12T05:51:22;96840.00;;;4.50
19666;BMP180;9980;51.020;7.772;2023-03-12T05:53:49;96836.00;;;4.50
19666;BMP180;9980;51.020;7.772;2023-03-12T05:56:17;96864.00;;;4.50
19666;BMP180;9980;51.020;7.772;2023-03-12T05:58:47;96849.00;;;4.50
19666;BMP180;9980;51.020;7.772;2023-03-12T06:01:23;96841.00;;;4.50
19666;BMP180;9980;51.020;7.772;2023-03-12T06:03:53;96816.00;;;4.50
19666;BMP180;9980;51.020;7.772;2023-03-12T06:06:20;96811.00;;;4.50
19666;BMP180;9980;51.020;7.772;2023-03-12T06:08:49;96819.00;;;4.60
19666;BMP180;9980;51.020;7.772;2023-03-12T06:11:17;96829.00;;;4.60
19666;BMP180;9980;51.020;7.772;2023-03-12T06:13:44;96815.00;;;4.60
19666;BMP180;9980;51.020;7.772;2023-03-12T06:16:20;96828.00;;;4.60
19666;BMP180;9980;51.020;7.772;2023-03-12T06:18:52;96811.00;;;4.60
19666;BMP180;9980;51.020;7.772;2023-03-12T06:21:23;96826.00;;;4.60
19666;BMP180;9980;51.020;7.772;2023-03-12T06:23:52;96830.00;;;4.70
19666;BMP180;9980;51.020;7.772;2023-03-12T06:26:24;96824.00;;;4.70
19666;BMP180;9980;51.020;7.772;2023-03-12T06:28:52;96814.00;;;4.70
19666;BMP180;9980;51.020;7.772;2023-03-12T06:31:20;96821.00;;;4.70
19666;BMP180;9980;51.020;7.772;2023-03-12T06:33:48;96812.00;;;4.70
19666;BMP180;9980;51.020;7.772;2023-03-12T06:36:15;96785.00;;;4.80
19666;BMP180;9980;51.020;7.772;2023-03-12T06:38:42;96792.00;;;4.80
19666;BMP180;9980;51.020;7.772;2023-03-12T06:41:13;96789.00;;;4.80
19666;BMP180;9980;51.020;7.772;2023-03-12T06:43:42;96787.00;;;4.80
19666;BMP180;9980;51.020;7.772;2023-03-12T06:46:14;96794.00;;;4.90
19666;BMP180;9980;51.020;7.772;2023-03-12T06:48:43;96792.00;;;4.90
19666;BMP180;9980;51.020;7.772;2023-03-12T06:51:15;96798.00;;;4.90
19666;BMP180;9980;51.020;7.772;2023-03-12T06:53:43;96800.00;;;4.90
19666;BMP180;9980;51.020;7.772;2023-03-12T06:56:11;96803.00;;;5.00
19666;BMP180;9980;51.020;7.772;2023-03-12T06:58:38;96797.00;;;5.00
19666;BMP180;9980;51.020;7.772;2023-03-12T07:01:06;96782.00;;;5.00
19666;BMP180;9980;51.020;7.772;2023-03-12T07:03:36;96779.00;;;5.00
19666;BMP180;9980;51.020;7.772;2023-03-12T07:06:04;96787.00;;;5.10
19666;BMP180;9980;51.020;7.772;2023-03-12T07:08:31;96800.00;;;5.10
19666;BMP180;9980;51.020;7.772;2023-03-12T07:10:58;96792.00;;;5.10
19666;BMP180;9980;51.020;7.772;2023-03-12T07:13:29;96794.00;;;5.10
19666;BMP180;9980;51.020;7.772;2023-03-12T07:15:56;96781.00;;;5.10
19666;BMP180;9980;51.020;7.772;2023-03-12T07:18:23;96793.00;;;5.20
19666;BMP180;9980;51.020;7.772;2023-03-12T07:20:51;96807.00;;;5.20
19666;BMP180;9980;51.020;7.772;2023-03-12T07:23:18;96807.00;;;5.20
19666;BMP180;9980;51.020;7.772;2023-03-12T07:25:46;96807.00;;;5.20
19666;BMP180;9980;51.020;7.772;2023-03-12T07:28:14;96813.00;;;5.20
19666;BMP180;9980;51.020;7.772;2023-03-12T07:30:41;96796.00;;;5.20
19666;BMP180;9980;51.020;7.772;2023-03-12T07:33:11;96804.00;;;5.20
19666;BMP180;9980;51.020;7.772;2023-03-12T07:35:39;96805.00;;;5.30
19666;BMP180;9980;51.020;7.772;2023-03-12T07:38:07;96794.00;;;5.20
19666;BMP180;9980;51.020;7.772;2023-03-12T07:40:35;96801.00;;;5.30
19666;BMP180;9980;51.020;7.772;2023-03-12T07:43:03;96809.00;;;5.30
19666;BMP180;9980;51.020;7.772;2023-03-12T07:45:38;96812.00;;;5.30
19666;BMP180;9980;51.020;7.772;2023-03-12T07:48:07;96820.00;;;5.30
19666;BMP180;9980;51.020;7.772;2023-03-12T07:50:35;96814.00;;;5.30
19666;BMP180;9980;51.020;7.772;2023-03-12T07:53:04;96803.00;;;5.40
19666;BMP180;9980;51.020;7.772;2023-03-12T07:55:33;96824.00;;;5.40
19666;BMP180;9980;51.020;7.772;2023-03-12T07:58:00;96802.00;;;5.40
19666;BMP180;9980;51.020;7.772;2023-03-12T08:00:28;96810.00;;;5.40
19666;BMP180;9980;51.020;7.772;2023-03-12T08:02:56;96793.00;;;5.40
19666;BMP180;9980;51.020;7.772;2023-03-12T08:05:23;96811.00;;;5.40
19666;BMP180;9980;51.020;7.772;2023-03-12T08:07:52;96818.00;;;5.40
19666;BMP180;9980;51.020;7.772;2023-03-12T08:10:20;96820.00;;;5.40
19666;BMP180;9980;51.020;7.772;2023-03-12T08:12:48;96812.00;;;5.40
19666;BMP180;9980;51.020;7.772;2023-03-12T08:15:15;96786.00;;;5.40
19666;BMP180;9980;51.020;7.772;2023-03-12T08:17:42;96793.00;;;5.50
19666;BMP180;9980;51.020;7.772;2023-03-12T08:20:11;96808.00;;;5.50
19666;BMP180;9980;51.020;7.772;2023-03-12T08:22:39;96797.00;;;5.50
19666;BMP180;9980;51.020;7.772;2023-03-12T08:25:06;96793.00;;;5.50
19666;BMP180;9980;51.020;7.772;2023-03-12T08:27:34;96784.00;;;5.60
19666;BMP180;9980;51.020;7.772;2023-03-12T08:30:02;96787.00;;;5.60
19666;BMP180;9980;51.020;7.772;2023-03-12T08:32:29;96788.00;;;5.60
19666;BMP180;9980;51.020;7.772;2023-03-12T08:34:56;96798.00;;;5.70
19666;BMP180;9980;51.020;7.772;2023-03-12T08:37:23;96787.00;;;5.70
19666;BMP180;9980;51.020;7.772;2023-03-12T08:39:50;96777.00;;;5.70
19666;BMP180;9980;51.020;7.772;2023-03-12T08:42:17;96804.00;;;5.70
19666;BMP180;9980;51.020;7.772;2023-03-12T08:44:43;96791.00;;;5.80
19666;BMP180;9980;51.020;7.772;2023-03-12T08:47:11;96797.00;;;5.80
19666;BMP180;9980;51.020;7.772;2023-03-12T08:49:37;96781.00;;;5.80
19666;BMP180;9980;51.020;7.772;2023-03-12T08:52:04;96802.00;;;5.80
19666;BMP180;9980;51.020;7.772;2023-03-12T08:54:31;96795.00;;;5.90
19666;BMP180;9980;51.020;7.772;2023-03-12T08:56:59;96796.00;;;5.90
19666;BMP180;9980;51.020;7.772;2023-03-12T08:59:26;96793.00;;;5.90
19666;BMP180;9980;51.020;7.772;2023-03-12T09:01:52;96800.00;;;5.90
19666;BMP180;9980;51.020;7.772;2023-03-12T09:04:19;96790.00;;;6.00
19666;BMP180;9980;51.020;7.772;2023-03-12T09:06:46;96799.00;;;6.00
19666;BMP180;9980;51.020;7.772;2023-03-12T09:09:13;96795.00;;;6.00
19666;BMP180;9980;51.020;7.772;2023-03-12T09:11:40;96794.00;;;6.00
19666;BMP180;9980;51.020;7.772;2023-03-12T09:14:08;96800.00;;;6.00
19666;BMP180;9980;51.020;7.772;2023-03-12T09:16:56;96790.00;;;6.10
19666;BMP180;9980;51.020;7.772;2023-03-12T09:19:23;96790.00;;;6.10
19666;BMP180;9980;51.020;7.772;2023-03-12T09:21:50;96792.00;;;6.20
19666;BMP180;9980;51.020;7.772;2023-03-12T09:24:17;96797.00;;;6.20
19666;BMP180;9980;51.020;7.772;2023-03-12T09:26:44;96800.00;;;6.30
19666;BMP180;9980;51.020;7.772;2023-03-12T09:29:11;96781.00;;;6.30
19666;BMP180;9980;51.020;7.772;2023-03-12T09:31:38;96776.00;;;6.40
19666;BMP180;9980;51.020;7.772;2023-03-12T09:34:05;96782.00;;;6.40
19666;BMP180;9980;51.020;7.772;2023-03-12T09:36:33;96774.00;;;6.40
19666;BMP180;9980;51.020;7.772;2023-03-12T09:39:00;96761.00;;;6.50
19666;BMP180;9980;51.020;7.772;2023-03-12T09:41:35;96771.00;;;6.60
19666;BMP180;9980;51.020;7.772;2023-03-12T09:44:41;96778.00;;;6.60
19666;BMP180;9980;51.020;7.772;2023-03-12T09:47:31;96776.00;;;6.70
19666;BMP180;9980;51.020;7.772;2023-03-12T09:50:05;96792.00;;;6.70
19666;BMP180;9980;51.020;7.772;2023-03-12T09:53:09;96795.00;;;6.80
19666;BMP180;9980;51.020;7.772;2023-03-12T09:55:41;96780.00;;;6.80
19666;BMP180;9980;51.020;7.772;2023-03-12T09:58:30;96774.00;;;6.90
19666;BMP180;9980;51.020;7.772;2023-03-12T10:05:03;96787.00;;;7.00
19666;BMP180;9980;51.020;7.772;2023-03-12T10:07:18;96783.00;;;7.00
19666;BMP180;9980;51.020;7.772;2023-03-12T10:16:19;96793.00;;;7.10
19666;BMP180;9980;51.020;7.772;2023-03-12T10:19:04;96781.00;;;7.10
19666;BMP180;9980;51.020;7.772;2023-03-12T10:22:21;96792.00;;;7.20
19666;BMP180;9980;51.020;7.772;2023-03-12T10:25:17;96796.00;;;7.20
19666;BMP180;9980;51.020;7.772;2023-03-12T10:27:47;96767.00;;;7.30
19666;BMP180;9980;51.020;7.772;2023-03-12T10:30:27;96800.00;;;7.40
19666;BMP180;9980;51.020;7.772;2023-03-12T10:33:01;96781.00;;;7.40
19666;BMP180;9980;51.020;7.772;2023-03-12T10:35:29;96791.00;;;7.50
19666;BMP180;9980;51.020;7.772;2023-03-12T10:38:00;96781.00;;;7.50
19666;BMP180;9980;51.020;7.772;2023-03-12T10:40:32;96797.00;;;7.50
19666;BMP180;9980;51.020;7.772;2023-03-12T10:43:04;96784.00;;;7.60
19666;BMP180;9980;51.020;7.772;2023-03-12T10:46:29;96804.00;;;7.60
19666;BMP180;9980;51.020;7.772;2023-03-12T10:49:25;96804.00;;;7.60
19666;BMP180;9980;51.020;7.772;2023-03-12T10:52:17;96803.00;;;7.70
19666;BMP180;9980;51.020;7.772;2023-03-12T10:54:51;96799.00;;;7.70
19666;BMP180;9980;51.020;7.772;2023-03-12T10:57:19;96798.00;;;7.80
19666;BMP180;9980;51.020;7.772;2023-03-12T10:59:47;96791.00;;;7.80
19666;BMP180;9980;51.020;7.772;2023-03-12T11:02:43;96792.00;;;7.80
19666;BMP180;9980;51.020;7.772;2023-03-12T11:07:50;96811.00;;;8.00
19666;BMP180;9980;51.020;7.772;2023-03-12T11:10:22;96814.00;;;8.10
19666;BMP180;9980;51.020;7.772;2023-03-12T11:13:01;96802.00;;;8.10
19666;BMP180;9980;51.020;7.772;2023-03-12T11:20:48;96795.00;;;8.40
19666;BMP180;9980;51.020;7.772;2023-03-12T11:23:29;96808.00;;;8.50
19666;BMP180;9980;51.020;7.772;2023-03-12T11:26:04;96803.00;;;8.50
19666;BMP180;9980;51.020;7.772;2023-03-12T11:29:00;96798.00;;;8.60
19666;BMP180;9980;51.020;7.772;2023-03-12T11:31:36;96797.00;;;8.60
19666;BMP180;9980;51.020;7.772;2023-03-12T11:34:34;96813.00;;;8.70
19666;BMP180;9980;51.020;7.772;2023-03-12T11:46:36;96799.00;;;9.00
19666;BMP180;9980;51.020;7.772;2023-03-12T11:49:23;96785.00;;;9.00
19666;BMP180;9980;51.020;7.772;2023-03-12T11:52:09;96780.00;;;9.10
19666;BMP180;9980;51.020;7.772;2023-03-12T12:04:12;96786.00;;;9.40
19666;BMP180;9980;51.020;7.772;2023-03-12T12:10:01;96801.00;;;9.50
19666;BMP180;9980;51.020;7.772;2023-03-12T12:15:19;96784.00;;;9.60
19666;BMP180;9980;51.020;7.772;2023-03-12T12:21:13;96771.00;;;9.60
19666;BMP180;9980;51.020;7.772;2023-03-12T12:24:12;96773.00;;;9.70
19666;BMP180;9980;51.020;7.772;2023-03-12T12:27:06;96778.00;;;9.70
19666;BMP180;9980;51.020;7.772;2023-03-12T12:33:07;96770.00;;;9.80
19666;BMP180;9980;51.020;7.772;2023-03-12T12:35:39;96765.00;;;9.80
19666;BMP180;9980;51.020;7.772;2023-03-12T12:38:15;96773.00;;;9.90
19666;BMP180;9980;51.020;7.772;2023-03-12T12:40:50;96784.00;;;9.90
19666;BMP180;9980;51.020;7.772;2023-03-12T12:43:29;96770.00;;;9.90
19666;BMP180;9980;51.020;7.772;2023-03-12T12:46:29;96756.00;;;9.90
19666;BMP180;9980;51.020;7.772;2023-03-12T12:49:21;96758.00;;;9.90
19666;BMP180;9980;51.020;7.772;2023-03-12T12:51:57;96759.00;;;9.90
19666;BMP180;9980;51.020;7.772;2023-03-12T12:57:43;96773.00;;;9.90
19666;BMP180;9980;51.020;7.772;2023-03-12T13:00:51;96778.00;;;9.90
19666;BMP180;9980;51.020;7.772;2023-03-12T13:03:23;96762.00;;;9.90
19666;BMP180;9980;51.020;7.772;2023-03-12T13:05:59;96760.00;;;9.90
19666;BMP180;9980;51.020;7.772;2023-03-12T13:14:12;96757.00;;;10.00
19666;BMP180;9980;51.020;7.772;2023-03-12T13:16:42;96761.00;;;10.00
19666;BMP180;9980;51.020;7.772;2023-03-12T13:37:10;96742.00;;;10.20
19666;BMP180;9980;51.020;7.772;2023-03-12T13:39:44;96746.00;;;10.30
19666;BMP180;9980;51.020;7.772;2023-03-12T13:42:34;96751.00;;;10.30
19666;BMP180;9980;51.020;7.772;2023-03-12T13:45:27;96741.00;;;10.40
19666;BMP180;9980;51.020;7.772;2023-03-12T13:47:59;96745.00;;;10.40
19666;BMP180;9980;51.020;7.772;2023-03-12T13:50:29;96727.00;;;10.50
19666;BMP180;9980;51.020;7.772;2023-03-12T13:53:05;96732.00;;;10.50
19666;BMP180;9980;51.020;7.772;2023-03-12T13:55:36;96726.00;;;10.60
19666;BMP180;9980;51.020;7.772;2023-03-12T14:00:52;96712.00;;;10.70
19666;BMP180;9980;51.020;7.772;2023-03-12T14:03:44;96707.00;;;10.80
19666;BMP180;9980;51.020;7.772;2023-03-12T14:06:19;96717.00;;;10.90
19666;BMP180;9980;51.020;7.772;2023-03-12T14:15:00;96707.00;;;11.00
19666;BMP180;9980;51.020;7.772;2023-03-12T14:17:31;96705.00;;;11.10
19666;BMP180;9980;51.020;7.772;2023-03-12T14:20:16;96711.00;;;11.20
19666;BMP180;9980;51.020;7.772;2023-03-12T14:22:52;96710.00;;;11.20
19666;BMP180;9980;51.020;7.772;2023-03-12T14:25:31;96720.00;;;11.30
19666;BMP180;9980;51.020;7.772;2023-03-12T14:28:02;96722.00;;;11.40
19666;BMP180;9980;51.020;7.772;2023-03-12T14:34:16;96707.00;;;11.60
19666;BMP180;9980;51.020;7.772;2023-03-12T14:37:09;96698.00;;;11.60
19666;BMP180;9980;51.020;7.772;2023-03-12T14:39:44;96709.00;;;11.70
19666;BMP180;9980;51.020;7.772;2023-03-12T14:42:22;96714.00;;;11.80
19666;BMP180;9980;51.020;7.772;2023-03-12T14:45:13;96712.00;;;11.90
19666;BMP180;9980;51.020;7.772;2023-03-12T14:47:41;96701.00;;;11.90
19666;BMP180;9980;51.020;7.772;2023-03-12T14:52:50;96698.00;;;12.00
19666;BMP180;9980;51.020;7.772;2023-03-12T14:55:24;96690.00;;;12.10
19666;BMP180;9980;51.020;7.772;2023-03-12T14:58:14;96691.00;;;12.10
19666;BMP180;9980;51.020;7.772;2023-03-12T15:00:43;96699.00;;;12.20
19666;BMP180;9980;51.020;7.772;2023-03-12T15:03:15;96697.00;;;12.20
19666;BMP180;9980;51.020;7.772;2023-03-12T15:05:50;96695.00;;;12.30
19666;BMP180;9980;51.020;7.772;2023-03-12T15:08:28;96697.00;;;12.30
19666;BMP180;9980;51.020;7.772;2023-03-12T15:10:58;96704.00;;;12.30
19666;BMP180;9980;51.020;7.772;2023-03-12T15:13:26;96701.00;;;12.30
19666;BMP180;9980;51.020;7.772;2023-03-12T15:15:54;96708.00;;;12.40
19666;BMP180;9980;51.020;7.772;2023-03-12T15:18:28;96713.00;;;12.40
19666;BMP180;9980;51.020;7.772;2023-03-12T15:20:57;96719.00;;;12.40
19666;BMP180;9980;51.020;7.772;2023-03-12T15:23:31;96716.00;;;12.40
19666;BMP180;9980;51.020;7.772;2023-03-12T15:31:46;96739.00;;;12.50
19666;BMP180;9980;51.020;7.772;2023-03-12T15:37:02;96736.00;;;12.60
19666;BMP180;9980;51.020;7.772;2023-03-12T15:39:35;96732.00;;;12.60
19666;BMP180;9980;51.020;7.772;2023-03-12T15:42:09;96720.00;;;12.60
19666;BMP180;9980;51.020;7.772;2023-03-12T15:44:51;96709.00;;;12.60
19666;BMP180;9980;51.020;7.772;2023-03-12T15:47:27;96708.00;;;12.70
19666;BMP180;9980;51.020;7.772;2023-03-12T15:50:36;96718.00;;;12.70
19666;BMP180;9980;51.020;7.772;2023-03-12T15:53:26;96722.00;;;12.70
19666;BMP180;9980;51.020;7.772;2023-03-12T15:58:40;96716.00;;;12.80
19666;BMP180;9980;51.020;7.772;2023-03-12T16:01:14;96708.00;;;12.80
19666;BMP180;9980;51.020;7.772;2023-03-12T16:03:43;96705.00;;;12.80
19666;BMP180;9980;51.020;7.772;2023-03-12T16:06:17;96714.00;;;12.80
19666;BMP180;9980;51.020;7.772;2023-03-12T16:08:50;96712.00;;;12.80
19666;BMP180;9980;51.020;7.772;2023-03-12T16:11:25;96726.00;;;12.80
19666;BMP180;9980;51.020;7.772;2023-03-12T16:14:06;96735.00;;;12.80
19666;BMP180;9980;51.020;7.772;2023-03-12T16:16:34;96726.00;;;12.90
19666;BMP180;9980;51.020;7.772;2023-03-12T16:19:01;96747.00;;;12.90
19666;BMP180;9980;51.020;7.772;2023-03-12T16:21:27;96731.00;;;12.90
19666;BMP180;9980;51.020;7.772;2023-03-12T16:23:54;96743.00;;;12.90
19666;BMP180;9980;51.020;7.772;2023-03-12T16:26:21;96727.00;;;12.90
19666;BMP180;9980;51.020;7.772;2023-03-12T16:28:48;96725.00;;;12.90
19666;BMP180;9980;51.020;7.772;2023-03-12T16:31:15;96736.00;;;12.90
19666;BMP180;9980;51.020;7.772;2023-03-12T16:33:42;96739.00;;;12.90
19666;BMP180;9980;51.020;7.772;2023-03-12T16:36:14;96744.00;;;12.90
19666;BMP180;9980;51.020;7.772;2023-03-12T16:38:43;96743.00;;;12.90
19666;BMP180;9980;51.020;7.772;2023-03-12T16:41:16;96732.00;;;12.80
19666;BMP180;9980;51.020;7.772;2023-03-12T16:43:50;96754.00;;;12.80
19666;BMP180;9980;51.020;7.772;2023-03-12T16:46:21;96757.00;;;12.80
19666;BMP180;9980;51.020;7.772;2023-03-12T16:48:51;96754.00;;;12.80
19666;BMP180;9980;51.020;7.772;2023-03-12T16:51:22;96745.00;;;12.80